sensor_id;sensor_type;location;lat;lon;timestamp;pressure;altitude;pressure_sealevel;temperature;humidity
20350;BME280;10332;50.208;18.988;2023-03-14T00:01:18;96575.81;;;11.88;55.71
20350;BME280;10332;50.208;18.988;2023-03-14T00:03:47;96571.56;;;11.87;55.76
20350;BME280;10332;50.208;18.988;2023-03-14T00:06:16;96559.81;;;11.91;55.99
20350;BME280;10332;50.208;18.988;2023-03-14T00:08:45;96551.59;;;11.86;56.02
20350;BME280;10332;50.208;18.988;2023-03-14T00:11:19;96540.84;;;11.89;55.76
20350;BME280;10332;50.208;18.988;2023-03-14T00:13:50;96532.25;;;11.97;55.97
20350;BME280;10332;50.208;18.988;2023-03-14T00:16:19;96521.25;;;11.93;55.78
20350;BME280;10332;50.208;18.988;2023-03-14T00:18:47;96500.41;;;12.01;55.97
20350;BME280;10332;50.208;18.988;2023-03-14T00:21:14;96488.06;;;11.93;56.09
20350;BME280;10332;50.208;18.988;2023-03-14T00:23:43;96480.69;;;11.89;56.14
20350;BME280;10332;50.208;18.988;2023-03-14T00:26:17;96470.59;;;11.94;56.27
20350;BME280;10332;50.208;18.988;2023-03-14T00:28:45;96456.19;;;11.90;56.53
20350;BME280;10332;50.208;18.988;2023-03-14T00:31:15;96458.22;;;11.96;56.05
20350;BME280;10332;50.208;18.988;2023-03-14T00:33:44;96443.34;;;11.97;56.16
20350;BME280;10332;50.208;18.988;2023-03-14T00:36:17;96435.06;;;12.09;55.82
20350;BME280;10332;50.208;18.988;2023-03-14T00:38:48;96438.81;;;12.07;56.01
20350;BME280;10332;50.208;18.988;2023-03-14T00:41:20;96437.22;;;12.14;55.45
20350;BME280;10332;50.208;18.988;2023-03-14T00:43:50;96429.91;;;12.26;55.24
20350;BME280;10332;50.208;18.988;2023-03-14T00:46:18;96422.69;;;12.19;55.25
20350;BME280;10332;50.208;18.988;2023-03-14T00:48:46;96401.97;;;12.26;54.63
20350;BME280;10332;50.208;18.988;2023-03-14T00:51:14;96417.19;;;12.31;54.70
20350;BME280;10332;50.208;18.988;2023-03-14T00:53:42;96413.41;;;12.25;54.75
20350;BME280;10332;50.208;18.988;2023-03-14T00:56:12;96403.09;;;12.24;54.49
20350;BME280;10332;50.208;18.988;2023-03-14T00:58:40;96393.63;;;12.31;54.40
20350;BME280;10332;50.208;18.988;2023-03-14T01:01:18;96392.81;;;12.30;54.17
20350;BME280;10332;50.208;18.988;2023-03-14T01:03:51;96378.41;;;12.26;54.38
20350;BME280;10332;50.208;18.988;2023-03-14T01:06:23;96383.84;;;12.33;54.31
20350;BME280;10332;50.208;18.988;2023-03-14T01:08:51;96387.09;;;12.27;54.47
20350;BME280;10332;50.208;18.988;2023-03-14T01:11:28;96391.53;;;12.34;54.31
20350;BME280;10332;50.208;18.988;2023-03-14T01:13:56;96400.50;;;12.24;54.77
20350;BME280;10332;50.208;18.988;2023-03-14T01:16:27;96396.22;;;12.23;54.66
20350;BME280;10332;50.208;18.988;2023-03-14T01:18:55;96376.25;;;12.21;54.37
20350;BME280;10332;50.208;18.988;2023-03-14T01:21:30;96362.22;;;12.23;54.10
20350;BME280;10332;50.208;18.988;2023-03-14T01:24:03;96345.38;;;12.25;54.19
20350;BME280;10332;50.208;18.988;2023-03-14T01:26:33;96357.16;;;12.29;54.02
20350;BME280;10332;50.208;18.988;2023-03-14T01:29:02;96351.44;;;12.26;53.99
20350;BME280;10332;50.208;18.988;2023-03-14T01:31:30;96337.28;;;12.53;53.51
20350;BME280;10332;50.208;18.988;2023-03-14T01:33:58;96310.59;;;12.41;53.52
20350;BME280;10332;50.208;18.988;2023-03-14T01:36:25;96299.81;;;12.44;53.30
20350;BME280;10332;50.208;18.988;2023-03-14T01:38:53;96287.38;;;12.46;53.57
20350;BME280;10332;50.208;18.988;2023-03-14T01:41:24;96299.16;;;12.42;53.95
20350;BME280;10332;50.208;18.988;2023-03-14T01:43:52;96293.88;;;12.26;54.37
20350;BME280;10332;50.208;18.988;2023-03-14T01:46:21;96282.44;;;12.27;54.49
20350;BME280;10332;50.208;18.988;2023-03-14T01:48:57;96286.31;;;12.14;54.65
20350;BME280;10332;50.208;18.988;2023-03-14T01:51:34;96280.41;;;12.12;54.81
20350;BME280;10332;50.208;18.988;2023-03-14T01:54:21;96275.03;;;12.06;55.07
20350;BME280;10332;50.208;18.988;2023-03-14T01:57:02;96284.34;;;12.08;54.90
20350;BME280;10332;50.208;18.988;2023-03-14T01:59:34;96277.59;;;11.98;55.32
20350;BME280;10332;50.208;18.988;2023-03-14T02:02:06;96299.19;;;12.00;55.23
20350;BME280;10332;50.208;18.988;2023-03-14T02:04:36;96296.72;;;11.98;55.28
20350;BME280;10332;50.208;18.988;2023-03-14T02:07:20;96296.94;;;11.79;55.39
20350;BME280;10332;50.208;18.988;2023-03-14T02:09:51;96303.56;;;11.91;55.31
20350;BME280;10332;50.208;18.988;2023-03-14T02:12:21;96302.75;;;11.90;55.45
20350;BME280;10332;50.208;18.988;2023-03-14T02:14:49;96303.72;;;11.89;55.18
20350;BME280;10332;50.208;18.988;2023-03-14T02:17:18;96305.81;;;11.86;55.33
20350;BME280;10332;50.208;18.988;2023-03-14T02:19:58;96300.91;;;11.83;55.52
20350;BME280;10332;50.208;18.988;2023-03-14T02:22:28;96290.09;;;11.78;55.67
20350;BME280;10332;50.208;18.988;2023-03-14T02:27:49;96288.41;;;11.69;55.93
20350;BME280;10332;50.208;18.988;2023-03-14T02:30:27;96296.53;;;11.65;56.11
20350;BME280;10332;50.208;18.988;2023-03-14T02:33:24;96296.84;;;11.62;56.19
20350;BME280;10332;50.208;18.988;2023-03-14T02:35:59;96294.84;;;11.56;56.29
20350;BME280;10332;50.208;18.988;2023-03-14T02:39:08;96288.31;;;11.52;56.49
20350;BME280;10332;50.208;18.988;2023-03-14T02:41:39;96290.28;;;11.50;56.46
20350;BME280;10332;50.208;18.988;2023-03-14T02:44:06;96285.31;;;11.47;56.57
20350;BME280;10332;50.208;18.988;2023-03-14T02:46:34;96286.63;;;11.43;56.91
20350;BME280;10332;50.208;18.988;2023-03-14T02:49:06;96277.91;;;11.34;57.22
20350;BME280;10332;50.208;18.988;2023-03-14T02:51:35;96299.25;;;11.30;57.53
20350;BME280;10332;50.208;18.988;2023-03-14T02:54:03;96289.94;;;11.27;57.60
20350;BME280;10332;50.208;18.988;2023-03-14T02:56:31;96299.09;;;11.23;57.74
20350;BME280;10332;50.208;18.988;2023-03-14T02:58:58;96294.69;;;11.24;57.69
20350;BME280;10332;50.208;18.988;2023-03-14T03:01:26;96295.13;;;11.19;58.17
20350;BME280;10332;50.208;18.988;2023-03-14T03:03:53;96299.22;;;11.22;58.11
20350;BME280;10332;50.208;18.988;2023-03-14T03:06:21;96301.81;;;11.22;58.45
20350;BME280;10332;50.208;18.988;2023-03-14T03:08:49;96288.91;;;11.20;58.64
20350;BME280;10332;50.208;18.988;2023-03-14T03:11:17;96296.91;;;11.19;59.02
20350;BME280;10332;50.208;18.988;2023-03-14T03:13:44;96287.13;;;11.21;58.93
20350;BME280;10332;50.208;18.988;2023-03-14T03:16:11;96282.81;;;11.12;59.45
20350;BME280;10332;50.208;18.988;2023-03-14T03:18:40;96284.78;;;11.09;59.33
20350;BME280;10332;50.208;18.988;2023-03-14T03:21:08;96289.31;;;11.07;59.50
20350;BME280;10332;50.208;18.988;2023-03-14T03:23:36;96290.88;;;11.18;59.04
20350;BME280;10332;50.208;18.988;2023-03-14T03:26:04;96276.63;;;11.13;59.10
20350;BME280;10332;50.208;18.988;2023-03-14T03:28:31;96282.44;;;11.24;58.58
20350;BME280;10332;50.208;18.988;2023-03-14T03:31:06;96297.56;;;11.21;58.78
20350;BME280;10332;50.208;18.988;2023-03-14T03:33:36;96290.78;;;11.28;58.60
20350;BME280;10332;50.208;18.988;2023-03-14T03:36:04;96306.44;;;11.28;58.48
20350;BME280;10332;50.208;18.988;2023-03-14T03:38:31;96320.97;;;11.30;58.50
20350;BME280;10332;50.208;18.988;2023-03-14T03:41:04;96342.69;;;11.31;58.76
20350;BME280;10332;50.208;18.988;2023-03-14T03:43:32;96351.97;;;11.25;59.02
20350;BME280;10332;50.208;18.988;2023-03-14T03:46:04;96364.22;;;11.25;59.12
20350;BME280;10332;50.208;18.988;2023-03-14T03:48:32;96360.91;;;11.23;59.23
20350;BME280;10332;50.208;18.988;2023-03-14T03:51:00;96358.84;;;11.26;59.01
20350;BME280;10332;50.208;18.988;2023-03-14T03:53:28;96359.50;;;11.28;58.91
20350;BME280;10332;50.208;18.988;2023-03-14T03:56:00;96368.63;;;11.24;58.91
20350;BME280;10332;50.208;18.988;2023-03-14T03:58:28;96367.72;;;11.33;58.42
20350;BME280;10332;50.208;18.988;2023-03-14T04:00:56;96357.94;;;11.35;58.40
20350;BME280;10332;50.208;18.988;2023-03-14T04:03:23;96348.31;;;11.36;58.14
20350;BME280;10332;50.208;18.988;2023-03-14T04:06:10;96346.34;;;11.38;58.16
20350;BME280;10332;50.208;18.988;2023-03-14T04:08:39;96348.19;;;11.46;57.94
20350;BME280;10332;50.208;18.988;2023-03-14T04:11:08;96343.13;;;11.70;57.28
20350;BME280;10332;50.208;18.988;2023-03-14T04:13:35;96348.75;;;11.57;57.47
20350;BME280;10332;50.208;18.988;2023-03-14T04:16:03;96341.59;;;11.59;57.57
20350;BME280;10332;50.208;18.988;2023-03-14T04:18:30;96334.00;;;11.74;57.22
20350;BME280;10332;50.208;18.988;2023-03-14T04:20:58;96348.13;;;11.81;56.76
20350;BME280;10332;50.208;18.988;2023-03-14T04:23:25;96328.06;;;11.90;56.68
20350;BME280;10332;50.208;18.988;2023-03-14T04:25:53;96331.28;;;11.84;56.61
20350;BME280;10332;50.208;18.988;2023-03-14T04:28:21;96309.16;;;11.96;56.39
20350;BME280;10332;50.208;18.988;2023-03-14T04:30:48;96320.22;;;11.90;56.73
20350;BME280;10332;50.208;18.988;2023-03-14T04:33:15;96307.94;;;11.82;56.48
20350;BME280;10332;50.208;18.988;2023-03-14T04:35:45;96301.56;;;11.85;56.57
20350;BME280;10332;50.208;18.988;2023-03-14T04:38:13;96298.03;;;12.02;56.14
20350;BME280;10332;50.208;18.988;2023-03-14T04:40:41;96295.69;;;11.83;56.60
20350;BME280;10332;50.208;18.988;2023-03-14T04:43:11;96281.78;;;11.82;56.64
20350;BME280;10332;50.208;18.988;2023-03-14T04:45:42;96281.47;;;11.85;56.46
20350;BME280;10332;50.208;18.988;2023-03-14T04:48:10;96277.53;;;11.81;56.57
20350;BME280;10332;50.208;18.988;2023-03-14T04:50:37;96267.28;;;11.88;56.45
20350;BME280;10332;50.208;18.988;2023-03-14T04:53:06;96283.94;;;11.87;56.35
20350;BME280;10332;50.208;18.988;2023-03-14T04:55:33;96269.00;;;11.79;56.66
20350;BME280;10332;50.208;18.988;2023-03-14T04:58:01;96289.09;;;11.79;56.79
20350;BME280;10332;50.208;18.988;2023-03-14T05:00:29;96270.13;;;11.77;56.74
20350;BME280;10332;50.208;18.988;2023-03-14T05:02:56;96271.63;;;11.79;56.64
20350;BME280;10332;50.208;18.988;2023-03-14T05:05:24;96270.88;;;11.61;57.20
20350;BME280;10332;50.208;18.988;2023-03-14T05:07:52;96264.97;;;11.59;57.51
20350;BME280;10332;50.208;18.988;2023-03-14T05:10:20;96261.69;;;11.57;57.54
20350;BME280;10332;50.208;18.988;2023-03-14T05:12:47;96257.13;;;11.59;57.62
20350;BME280;10332;50.208;18.988;2023-03-14T05:15:14;96264.16;;;11.58;57.61
20350;BME280;10332;50.208;18.988;2023-03-14T05:17:42;96261.53;;;11.58;57.76
20350;BME280;10332;50.208;18.988;2023-03-14T05:20:10;96263.91;;;11.70;57.16
20350;BME280;10332;50.208;18.988;2023-03-14T05:22:40;96255.00;;;11.54;57.50
20350;BME280;10332;50.208;18.988;2023-03-14T05:25:08;96257.00;;;11.60;57.56
20350;BME280;10332;50.208;18.988;2023-03-14T05:27:36;96229.41;;;11.66;57.50
20350;BME280;10332;50.208;18.988;2023-03-14T05:30:05;96230.22;;;11.66;57.62
20350;BME280;10332;50.208;18.988;2023-03-14T05:32:33;96217.69;;;11.78;57.09
20350;BME280;10332;50.208;18.988;2023-03-14T05:35:00;96231.47;;;11.80;57.24
20350;BME280;10332;50.208;18.988;2023-03-14T05:37:28;96221.75;;;11.73;57.33
20350;BME280;10332;50.208;18.988;2023-03-14T05:39:56;96224.38;;;11.73;57.03
20350;BME280;10332;50.208;18.988;2023-03-14T05:42:23;96233.75;;;11.83;56.98
20350;BME280;10332;50.208;18.988;2023-03-14T05:44:50;96238.81;;;11.85;56.85
20350;BME280;10332;50.208;18.988;2023-03-14T05:47:18;96237.19;;;11.92;56.55
20350;BME280;10332;50.208;18.988;2023-03-14T05:49:45;96243.75;;;11.88;56.66
20350;BME280;10332;50.208;18.988;2023-03-14T05:52:13;96251.44;;;11.98;56.50
20350;BME280;10332;50.208;18.988;2023-03-14T05:54:40;96233.81;;;12.00;56.47
20350;BME280;10332;50.208;18.988;2023-03-14T05:57:08;96226.78;;;12.08;56.46
20350;BME280;10332;50.208;18.988;2023-03-14T05:59:35;96224.78;;;11.94;56.69
20350;BME280;10332;50.208;18.988;2023-03-14T06:02:03;96225.13;;;11.91;56.99
20350;BME280;10332;50.208;18.988;2023-03-14T06:04:30;96216.13;;;11.93;56.84
20350;BME280;10332;50.208;18.988;2023-03-14T06:06:58;96218.44;;;12.13;56.33
20350;BME280;10332;50.208;18.988;2023-03-14T06:09:25;96215.84;;;12.05;56.41
20350;BME280;10332;50.208;18.988;2023-03-14T06:11:53;96213.09;;;12.23;55.81
20350;BME280;10332;50.208;18.988;2023-03-14T06:14:20;96217.22;;;12.49;54.82
20350;BME280;10332;50.208;18.988;2023-03-14T06:16:48;96217.34;;;12.48;55.20
20350;BME280;10332;50.208;18.988;2023-03-14T06:19:16;96216.03;;;12.28;55.50
20350;BME280;10332;50.208;18.988;2023-03-14T06:21:44;96222.59;;;12.32;55.59
20350;BME280;10332;50.208;18.988;2023-03-14T06:24:11;96201.00;;;12.30;55.56
20350;BME280;10332;50.208;18.988;2023-03-14T06:26:39;96206.38;;;12.28;55.65
20350;BME280;10332;50.208;18.988;2023-03-14T06:29:06;96195.13;;;12.44;55.45
20350;BME280;10332;50.208;18.988;2023-03-14T06:31:34;96191.19;;;12.48;55.64
20350;BME280;10332;50.208;18.988;2023-03-14T06:34:01;96186.28;;;12.69;55.15
20350;BME280;10332;50.208;18.988;2023-03-14T06:36:29;96193.47;;;12.84;54.38
20350;BME280;10332;50.208;18.988;2023-03-14T06:38:56;96186.56;;;12.99;54.25
20350;BME280;10332;50.208;18.988;2023-03-14T06:41:24;96176.81;;;12.60;54.48
20350;BME280;10332;50.208;18.988;2023-03-14T06:43:53;96182.03;;;12.76;54.63
20350;BME280;10332;50.208;18.988;2023-03-14T06:46:22;96172.19;;;12.95;54.19
20350;BME280;10332;50.208;18.988;2023-03-14T06:48:50;96167.59;;;13.05;54.02
20350;BME280;10332;50.208;18.988;2023-03-14T06:51:17;96165.94;;;13.04;53.37
20350;BME280;10332;50.208;18.988;2023-03-14T06:53:45;96160.69;;;13.20;53.04
20350;BME280;10332;50.208;18.988;2023-03-14T06:56:12;96168.47;;;13.45;52.75
20350;BME280;10332;50.208;18.988;2023-03-14T06:58:40;96160.63;;;13.37;52.77
20350;BME280;10332;50.208;18.988;2023-03-14T07:01:21;96157.94;;;13.53;52.14
20350;BME280;10332;50.208;18.988;2023-03-14T07:03:50;96148.91;;;13.55;52.21
20350;BME280;10332;50.208;18.988;2023-03-14T07:06:18;96158.00;;;13.37;52.69
20350;BME280;10332;50.208;18.988;2023-03-14T07:08:45;96164.31;;;13.58;52.33
20350;BME280;10332;50.208;18.988;2023-03-14T07:11:13;96165.19;;;13.82;51.88
20350;BME280;10332;50.208;18.988;2023-03-14T07:13:41;96161.34;;;13.61;51.98
20350;BME280;10332;50.208;18.988;2023-03-14T07:16:09;96156.72;;;13.72;52.06
20350;BME280;10332;50.208;18.988;2023-03-14T07:18:36;96188.75;;;13.90;51.76
20350;BME280;10332;50.208;18.988;2023-03-14T07:21:08;96178.38;;;13.97;51.34
20350;BME280;10332;50.208;18.988;2023-03-14T07:23:36;96186.22;;;14.05;51.25
20350;BME280;10332;50.208;18.988;2023-03-14T07:26:04;96170.56;;;13.88;51.48
20350;BME280;10332;50.208;18.988;2023-03-14T07:28:31;96183.22;;;14.08;51.33
20350;BME280;10332;50.208;18.988;2023-03-14T07:30:59;96194.75;;;14.30;50.70
20350;BME280;10332;50.208;18.988;2023-03-14T07:33:26;96200.72;;;14.46;50.23
20350;BME280;10332;50.208;18.988;2023-03-14T07:35:54;96210.59;;;14.82;49.45
20350;BME280;10332;50.208;18.988;2023-03-14T07:38:22;96210.13;;;15.16;48.23
20350;BME280;10332;50.208;18.988;2023-03-14T07:40:57;96190.66;;;15.55;47.56
20350;BME280;10332;50.208;18.988;2023-03-14T07:43:25;96191.19;;;15.95;46.99
20350;BME280;10332;50.208;18.988;2023-03-14T07:45:52;96213.44;;;16.28;45.78
20350;BME280;10332;50.208;18.988;2023-03-14T07:48:25;96211.84;;;16.34;45.84
20350;BME280;10332;50.208;18.988;2023-03-14T07:50:55;96227.25;;;17.22;44.19
20350;BME280;10332;50.208;18.988;2023-03-14T07:53:24;96231.19;;;17.68;43.16
20350;BME280;10332;50.208;18.988;2023-03-14T07:55:53;96210.03;;;19.56;39.64
20350;BME280;10332;50.208;18.988;2023-03-14T07:58:22;96200.09;;;21.72;36.37
20350;BME280;10332;50.208;18.988;2023-03-14T08:00:51;96213.47;;;21.66;35.08
20350;BME280;10332;50.208;18.988;2023-03-14T08:03:19;96204.16;;;23.37;33.54
20350;BME280;10332;50.208;18.988;2023-03-14T08:05:50;96217.72;;;23.47;32.42
20350;BME280;10332;50.208;18.988;2023-03-14T08:08:18;96205.19;;;23.01;32.74
20350;BME280;10332;50.208;18.988;2023-03-14T08:10:46;96223.91;;;21.61;34.33
20350;BME280;10332;50.208;18.988;2023-03-14T08:13:14;96237.38;;;20.59;36.12
20350;BME280;10332;50.208;18.988;2023-03-14T08:15:41;96202.97;;;21.71;34.70
20350;BME280;10332;50.208;18.988;2023-03-14T08:18:09;96207.91;;;21.67;34.83
20350;BME280;10332;50.208;18.988;2023-03-14T08:20:37;96229.28;;;19.96;37.20
20350;BME280;10332;50.208;18.988;2023-03-14T08:23:04;96221.72;;;19.93;37.07
20350;BME280;10332;50.208;18.988;2023-03-14T08:25:32;96232.84;;;21.48;34.84
20350;BME280;10332;50.208;18.988;2023-03-14T08:27:59;96245.69;;;22.06;34.08
20350;BME280;10332;50.208;18.988;2023-03-14T08:30:27;96210.06;;;22.44;33.74
20350;BME280;10332;50.208;18.988;2023-03-14T08:32:57;96219.69;;;23.28;32.60
20350;BME280;10332;50.208;18.988;2023-03-14T08:35:26;96227.41;;;23.18;32.72
20350;BME280;10332;50.208;18.988;2023-03-14T08:37:54;96240.31;;;22.61;32.95
20350;BME280;10332;50.208;18.988;2023-03-14T08:40:23;96235.34;;;22.34;33.26
20350;BME280;10332;50.208;18.988;2023-03-14T08:42:50;96230.66;;;23.32;32.19
20350;BME280;10332;50.208;18.988;2023-03-14T08:45:18;96244.22;;;23.54;31.75
20350;BME280;10332;50.208;18.988;2023-03-14T08:47:46;96241.75;;;22.45;33.23
20350;BME280;10332;50.208;18.988;2023-03-14T08:50:13;96254.81;;;21.05;35.00
20350;BME280;10332;50.208;18.988;2023-03-14T08:52:42;96258.06;;;19.73;37.30
20350;BME280;10332;50.208;18.988;2023-03-14T08:55:10;96232.78;;;18.64;39.42
20350;BME280;10332;50.208;18.988;2023-03-14T08:57:39;96245.84;;;18.11;40.87
20350;BME280;10332;50.208;18.988;2023-03-14T09:00:08;96255.03;;;17.46;42.32
20350;BME280;10332;50.208;18.988;2023-03-14T09:02:42;96261.06;;;17.12;43.03
20350;BME280;10332;50.208;18.988;2023-03-14T09:05:11;96257.25;;;16.93;43.63
20350;BME280;10332;50.208;18.988;2023-03-14T09:07:40;96276.25;;;16.89;44.01
20350;BME280;10332;50.208;18.988;2023-03-14T09:10:09;96246.59;;;17.29;43.57
20350;BME280;10332;50.208;18.988;2023-03-14T09:12:36;96258.53;;;17.60;43.28
20350;BME280;10332;50.208;18.988;2023-03-14T09:15:05;96263.16;;;18.21;41.60
20350;BME280;10332;50.208;18.988;2023-03-14T09:17:32;96266.09;;;17.63;42.63
20350;BME280;10332;50.208;18.988;2023-03-14T09:20:00;96279.72;;;17.39;43.59
20350;BME280;10332;50.208;18.988;2023-03-14T09:22:27;96269.72;;;16.63;45.09
20350;BME280;10332;50.208;18.988;2023-03-14T09:24:55;96268.78;;;16.35;45.48
20350;BME280;10332;50.208;18.988;2023-03-14T09:27:22;96305.16;;;16.10;46.43
20350;BME280;10332;50.208;18.988;2023-03-14T09:29:49;96249.78;;;16.18;45.93
20350;BME280;10332;50.208;18.988;2023-03-14T09:32:17;96258.59;;;16.83;44.78
20350;BME280;10332;50.208;18.988;2023-03-14T09:34:44;96267.22;;;17.19;44.56
20350;BME280;10332;50.208;18.988;2023-03-14T09:37:12;96262.59;;;17.56;43.36
20350;BME280;10332;50.208;18.988;2023-03-14T09:39:40;96236.81;;;18.34;42.13
20350;BME280;10332;50.208;18.988;2023-03-14T09:42:15;96247.88;;;19.50;39.77
20350;BME280;10332;50.208;18.988;2023-03-14T09:45:02;96258.22;;;20.42;37.96
20350;BME280;10332;50.208;18.988;2023-03-14T09:47:34;96255.97;;;21.41;36.69
20350;BME280;10332;50.208;18.988;2023-03-14T09:50:14;96276.56;;;20.89;37.31
20350;BME280;10332;50.208;18.988;2023-03-14T09:52:56;96265.03;;;21.02;36.86
20350;BME280;10332;50.208;18.988;2023-03-14T09:55:26;96264.75;;;21.85;35.65
20350;BME280;10332;50.208;18.988;2023-03-14T09:58:02;96282.41;;;20.97;36.91
20350;BME280;10332;50.208;18.988;2023-03-14T10:00:31;96267.13;;;20.93;36.98
20350;BME280;10332;50.208;18.988;2023-03-14T10:03:26;96292.66;;;21.19;36.69
20350;BME280;10332;50.208;18.988;2023-03-14T10:05:56;96295.19;;;22.25;35.31
20350;BME280;10332;50.208;18.988;2023-03-14T10:08:25;96254.31;;;21.65;35.76
20350;BME280;10332;50.208;18.988;2023-03-14T10:10:54;96291.69;;;20.30;38.11
20350;BME280;10332;50.208;18.988;2023-03-14T10:13:24;96283.50;;;18.94;40.37
20350;BME280;10332;50.208;18.988;2023-03-14T10:16:01;96289.31;;;18.09;42.85
20350;BME280;10332;50.208;18.988;2023-03-14T10:18:31;96301.84;;;17.38;44.17
20350;BME280;10332;50.208;18.988;2023-03-14T10:21:28;96314.03;;;16.60;46.42
20350;BME280;10332;50.208;18.988;2023-03-14T10:24:22;96332.84;;;16.21;47.49
20350;BME280;10332;50.208;18.988;2023-03-14T10:27:10;96316.16;;;15.84;49.09
20350;BME280;10332;50.208;18.988;2023-03-14T10:30:00;96294.00;;;15.64;49.78
20350;BME280;10332;50.208;18.988;2023-03-14T10:32:35;96301.38;;;15.45;50.17
20350;BME280;10332;50.208;18.988;2023-03-14T10:38:03;96298.44;;;15.25;51.17
20350;BME280;10332;50.208;18.988;2023-03-14T10:40:41;96305.94;;;15.14;51.71
20350;BME280;10332;50.208;18.988;2023-03-14T10:43:21;96294.44;;;15.15;51.64
20350;BME280;10332;50.208;18.988;2023-03-14T10:45:56;96295.47;;;15.28;51.70
20350;BME280;10332;50.208;18.988;2023-03-14T10:48:37;96286.47;;;15.23;52.06
20350;BME280;10332;50.208;18.988;2023-03-14T10:56:21;96300.31;;;15.17;52.10
20350;BME280;10332;50.208;18.988;2023-03-14T10:58:56;96314.53;;;15.08;52.66
20350;BME280;10332;50.208;18.988;2023-03-14T11:05:21;96284.28;;;15.12;52.75
20350;BME280;10332;50.208;18.988;2023-03-14T11:07:55;96334.38;;;14.87;52.99
20350;BME280;10332;50.208;18.988;2023-03-14T11:10:33;96287.59;;;14.83;53.49
20350;BME280;10332;50.208;18.988;2023-03-14T11:13:26;96296.22;;;14.76;53.52
20350;BME280;10332;50.208;18.988;2023-03-14T11:16:41;96281.53;;;14.59;54.52
20350;BME280;10332;50.208;18.988;2023-03-14T11:19:47;96298.00;;;14.53;55.30
20350;BME280;10332;50.208;18.988;2023-03-14T11:28:21;96300.44;;;14.24;59.24
20350;BME280;10332;50.208;18.988;2023-03-14T11:31:19;96306.09;;;14.04;60.13
20350;BME280;10332;50.208;18.988;2023-03-14T11:37:06;96311.53;;;13.95;61.49
20350;BME280;10332;50.208;18.988;2023-03-14T11:39:41;96351.53;;;13.97;61.19
20350;BME280;10332;50.208;18.988;2023-03-14T11:42:16;96296.13;;;13.91;60.44
20350;BME280;10332;50.208;18.988;2023-03-14T11:44:48;96299.41;;;13.94;59.75
20350;BME280;10332;50.208;18.988;2023-03-14T11:50:05;96328.88;;;14.04;59.02
20350;BME280;10332;50.208;18.988;2023-03-14T11:52:42;96293.16;;;14.03;58.70
20350;BME280;10332;50.208;18.988;2023-03-14T11:55:26;96277.97;;;14.21;58.16
20350;BME280;10332;50.208;18.988;2023-03-14T11:58:02;96280.59;;;14.21;57.85
20350;BME280;10332;50.208;18.988;2023-03-14T12:00:33;96280.47;;;14.37;57.23
20350;BME280;10332;50.208;18.988;2023-03-14T12:03:45;96277.63;;;14.55;56.42
20350;BME280;10332;50.208;18.988;2023-03-14T12:06:33;96283.59;;;14.49;56.57
20350;BME280;10332;50.208;18.988;2023-03-14T12:09:06;96268.72;;;14.33;56.84
20350;BME280;10332;50.208;18.988;2023-03-14T12:17:40;96273.63;;;13.97;58.06
20350;BME280;10332;50.208;18.988;2023-03-14T12:19:41;96246.13;;;13.93;58.25
20350;BME280;10332;50.208;18.988;2023-03-14T12:22:33;96250.88;;;13.89;58.50
20350;BME280;10332;50.208;18.988;2023-03-14T12:25:26;96268.47;;;13.73;59.19
20350;BME280;10332;50.208;18.988;2023-03-14T12:35:50;96289.19;;;13.59;60.52
20350;BME280;10332;50.208;18.988;2023-03-14T12:38:31;96282.44;;;13.65;60.78
20350;BME280;10332;50.208;18.988;2023-03-14T12:41:36;96262.97;;;13.59;61.91
20350;BME280;10332;50.208;18.988;2023-03-14T12:47:40;96276.31;;;13.81;62.69
20350;BME280;10332;50.208;18.988;2023-03-14T12:50:18;96255.88;;;13.76;63.39
20350;BME280;10332;50.208;18.988;2023-03-14T12:56:20;96247.25;;;13.51;65.73
20350;BME280;10332;50.208;18.988;2023-03-14T12:59:32;96258.25;;;13.39;66.96
20350;BME280;10332;50.208;18.988;2023-03-14T13:02:43;96254.00;;;13.38;67.66
20350;BME280;10332;50.208;18.988;2023-03-14T13:05:21;96244.50;;;13.37;68.16
20350;BME280;10332;50.208;18.988;2023-03-14T13:10:38;96256.28;;;13.41;68.72
20350;BME280;10332;50.208;18.988;2023-03-14T13:13:26;96290.69;;;13.46;68.81
20350;BME280;10332;50.208;18.988;2023-03-14T13:15:57;96247.28;;;13.35;69.65
20350;BME280;10332;50.208;18.988;2023-03-14T13:21:35;96249.44;;;13.07;71.07
20350;BME280;10332;50.208;18.988;2023-03-14T13:24:24;96264.16;;;13.08;71.62
20350;BME280;10332;50.208;18.988;2023-03-14T13:26:55;96258.91;;;13.16;71.70
20350;BME280;10332;50.208;18.988;2023-03-14T13:29:29;96258.91;;;13.16;71.78
20350;BME280;10332;50.208;18.988;2023-03-14T13:32:20;96285.13;;;13.00;72.66
20350;BME280;10332;50.208;18.988;2023-03-14T13:34:48;96274.66;;;12.84;73.90
20350;BME280;10332;50.208;18.988;2023-03-14T13:37:22;96286.94;;;12.91;73.92
20350;BME280;10332;50.208;18.988;2023-03-14T13:39:57;96290.53;;;12.90;74.24
20350;BME280;10332;50.208;18.988;2023-03-14T13:42:29;96283.00;;;12.79;75.04
20350;BME280;10332;50.208;18.988;2023-03-14T13:44:57;96282.50;;;12.75;75.60
20350;BME280;10332;50.208;18.988;2023-03-14T13:47:26;96279.25;;;12.90;75.42
20350;BME280;10332;50.208;18.988;2023-03-14T13:49:54;96274.66;;;12.84;75.32
20350;BME280;10332;50.208;18.988;2023-03-14T13:52:36;96276.31;;;12.76;76.19
20350;BME280;10332;50.208;18.988;2023-03-14T13:55:14;96287.09;;;12.82;76.10
20350;BME280;10332;50.208;18.988;2023-03-14T13:57:53;96286.63;;;12.78;76.54
20350;BME280;10332;50.208;18.988;2023-03-14T14:00:27;96295.44;;;12.61;77.61
20350;BME280;10332;50.208;18.988;2023-03-14T14:02:57;96294.75;;;12.67;77.73
20350;BME280;10332;50.208;18.988;2023-03-14T14:05:29;96305.41;;;12.73;77.85
20350;BME280;10332;50.208;18.988;2023-03-14T14:07:58;96293.47;;;12.63;79.08